sensor_id;sensor_type;location;lat;lon;timestamp;pressure;altitude;pressure_sealevel;temperature;humidity
73297;BME280;61524;50.938;11.396;2023-04-15T00:02:18;98115.41;;;8.89;84.12
73297;BME280;61524;50.938;11.396;2023-04-15T00:04:47;98105.50;;;8.80;83.71
73297;BME280;61524;50.938;11.396;2023-04-15T00:07:13;98104.16;;;8.82;84.10
73297;BME280;61524;50.938;11.396;2023-04-15T00:09:41;98096.91;;;8.67;83.67
73297;BME280;61524;50.938;11.396;2023-04-15T00:12:07;98094.00;;;8.69;83.92
73297;BME280;61524;50.938;11.396;2023-04-15T00:14:33;98105.22;;;8.76;83.77
73297;BME280;61524;50.938;11.396;2023-04-15T00:17:00;98093.19;;;8.68;84.72
73297;BME280;61524;50.938;11.396;2023-04-15T00:19:25;98093.00;;;8.85;83.58
73297;BME280;61524;50.938;11.396;2023-04-15T00:21:51;98094.97;;;9.00;83.41
73297;BME280;61524;50.938;11.396;2023-04-15T00:24:16;98088.78;;;8.89;83.47
73297;BME280;61524;50.938;11.396;2023-04-15T00:26:42;98099.59;;;8.67;84.31
73297;BME280;61524;50.938;11.396;2023-04-15T00:29:07;98100.16;;;8.75;83.56
73297;BME280;61524;50.938;11.396;2023-04-15T00:31:33;98093.72;;;8.71;83.91
73297;BME280;61524;50.938;11.396;2023-04-15T00:33:58;98087.31;;;8.61;83.79
73297;BME280;61524;50.938;11.396;2023-04-15T00:36:24;98093.19;;;8.68;83.46
73297;BME280;61524;50.938;11.396;2023-04-15T00:38:50;98092.41;;;8.68;84.10
73297;BME280;61524;50.938;11.396;2023-04-15T00:41:17;98094.53;;;8.71;83.84
73297;BME280;61524;50.938;11.396;2023-04-15T00:43:43;98079.66;;;8.75;82.66
73297;BME280;61524;50.938;11.396;2023-04-15T00:46:09;98085.72;;;8.65;83.32
73297;BME280;61524;50.938;11.396;2023-04-15T00:48:37;98077.41;;;8.57;84.17
73297;BME280;61524;50.938;11.396;2023-04-15T00:51:03;98076.69;;;8.72;83.13
73297;BME280;61524;50.938;11.396;2023-04-15T00:53:28;98079.78;;;8.53;84.37
73297;BME280;61524;50.938;11.396;2023-04-15T00:55:54;98076.13;;;8.64;83.07
73297;BME280;61524;50.938;11.396;2023-04-15T00:58:20;98081.44;;;8.64;83.85
73297;BME280;61524;50.938;11.396;2023-04-15T01:00:46;98065.44;;;8.59;83.78
73297;BME280;61524;50.938;11.396;2023-04-15T01:03:12;98069.09;;;8.48;85.06
73297;BME280;61524;50.938;11.396;2023-04-15T01:05:38;98066.44;;;8.48;84.29
73297;BME280;61524;50.938;11.396;2023-04-15T01:08:04;98073.38;;;8.49;85.25
73297;BME280;61524;50.938;11.396;2023-04-15T01:10:30;98071.75;;;8.48;85.03
73297;BME280;61524;50.938;11.396;2023-04-15T01:12:56;98067.72;;;8.83;83.52
73297;BME280;61524;50.938;11.396;2023-04-15T01:15:22;98070.75;;;8.59;84.13
73297;BME280;61524;50.938;11.396;2023-04-15T01:17:48;98072.09;;;8.57;84.86
73297;BME280;61524;50.938;11.396;2023-04-15T01:20:14;98048.56;;;8.44;84.08
73297;BME280;61524;50.938;11.396;2023-04-15T01:22:40;98077.19;;;8.63;83.14
73297;BME280;61524;50.938;11.396;2023-04-15T01:25:12;98049.38;;;8.44;84.68
73297;BME280;61524;50.938;11.396;2023-04-15T01:27:42;98064.91;;;8.57;84.67
73297;BME280;61524;50.938;11.396;2023-04-15T01:30:08;98056.56;;;8.44;84.54
73297;BME280;61524;50.938;11.396;2023-04-15T01:32:34;98060.59;;;8.46;84.94
73297;BME280;61524;50.938;11.396;2023-04-15T01:35:00;98063.72;;;8.38;85.33
73297;BME280;61524;50.938;11.396;2023-04-15T01:37:26;98068.09;;;8.59;83.95
73297;BME280;61524;50.938;11.396;2023-04-15T01:39:51;98062.78;;;8.59;83.48
73297;BME280;61524;50.938;11.396;2023-04-15T01:42:17;98061.47;;;8.62;83.50
73297;BME280;61524;50.938;11.396;2023-04-15T01:44:42;98049.38;;;8.44;83.57
73297;BME280;61524;50.938;11.396;2023-04-15T01:47:08;98054.97;;;8.43;84.11
73297;BME280;61524;50.938;11.396;2023-04-15T01:49:33;98058.19;;;8.50;84.79
73297;BME280;61524;50.938;11.396;2023-04-15T01:51:59;98057.44;;;8.59;83.80
73297;BME280;61524;50.938;11.396;2023-04-15T01:54:25;98060.72;;;8.66;84.35
73297;BME280;61524;50.938;11.396;2023-04-15T01:56:52;98049.47;;;8.59;83.85
73297;BME280;61524;50.938;11.396;2023-04-15T01:59:17;98053.31;;;8.79;83.83
73297;BME280;61524;50.938;11.396;2023-04-15T02:01:43;98060.59;;;8.46;84.30
73297;BME280;61524;50.938;11.396;2023-04-15T02:04:09;98048.53;;;8.38;85.05
73297;BME280;61524;50.938;11.396;2023-04-15T02:06:41;98049.94;;;8.46;85.44
73297;BME280;61524;50.938;11.396;2023-04-15T02:09:08;98045.59;;;8.35;85.40
73297;BME280;61524;50.938;11.396;2023-04-15T02:11:34;98030.31;;;8.20;86.31
73297;BME280;61524;50.938;11.396;2023-04-15T02:14:02;98036.66;;;8.14;85.90
73297;BME280;61524;50.938;11.396;2023-04-15T02:16:28;98046.38;;;8.35;85.63
73297;BME280;61524;50.938;11.396;2023-04-15T02:18:54;98040.22;;;8.30;85.62
73297;BME280;61524;50.938;11.396;2023-04-15T02:21:20;98040.34;;;8.45;84.81
73297;BME280;61524;50.938;11.396;2023-04-15T02:23:45;98041.66;;;8.43;84.83
73297;BME280;61524;50.938;11.396;2023-04-15T02:26:12;98040.06;;;8.41;85.02
73297;BME280;61524;50.938;11.396;2023-04-15T02:28:38;98043.16;;;8.33;85.69
73297;BME280;61524;50.938;11.396;2023-04-15T02:31:06;98037.25;;;8.26;86.19
73297;BME280;61524;50.938;11.396;2023-04-15T02:33:33;98049.88;;;8.36;85.92
73297;BME280;61524;50.938;11.396;2023-04-15T02:35:59;98051.94;;;8.29;86.78
73297;BME280;61524;50.938;11.396;2023-04-15T02:38:25;98037.03;;;8.33;86.61
73297;BME280;61524;50.938;11.396;2023-04-15T02:40:51;98031.91;;;8.21;86.03
73297;BME280;61524;50.938;11.396;2023-04-15T02:43:16;98026.38;;;8.33;86.12
73297;BME280;61524;50.938;11.396;2023-04-15T02:45:42;98034.88;;;8.25;85.88
73297;BME280;61524;50.938;11.396;2023-04-15T02:48:08;98043.03;;;8.50;84.99
73297;BME280;61524;50.938;11.396;2023-04-15T02:50:34;98030.22;;;8.42;85.37
73297;BME280;61524;50.938;11.396;2023-04-15T02:53:00;98037.72;;;8.50;85.09
73297;BME280;61524;50.938;11.396;2023-04-15T02:55:26;98031.16;;;8.26;85.70
73297;BME280;61524;50.938;11.396;2023-04-15T02:57:52;98029.56;;;8.30;86.52
73297;BME280;61524;50.938;11.396;2023-04-15T03:00:17;98034.06;;;8.24;86.56
73297;BME280;61524;50.938;11.396;2023-04-15T03:02:46;98026.06;;;8.19;86.80
73297;BME280;61524;50.938;11.396;2023-04-15T03:05:12;98034.78;;;8.14;86.64
73297;BME280;61524;50.938;11.396;2023-04-15T03:07:38;98026.97;;;7.98;87.59
73297;BME280;61524;50.938;11.396;2023-04-15T03:10:06;98026.44;;;8.01;88.07
73297;BME280;61524;50.938;11.396;2023-04-15T03:12:31;98023.13;;;7.83;88.20
73297;BME280;61524;50.938;11.396;2023-04-15T03:14:57;98020.31;;;8.00;88.42
73297;BME280;61524;50.938;11.396;2023-04-15T03:17:22;98029.34;;;7.99;88.35
73297;BME280;61524;50.938;11.396;2023-04-15T03:19:48;98019.97;;;7.86;88.88
73297;BME280;61524;50.938;11.396;2023-04-15T03:22:13;98020.56;;;7.99;87.85
73297;BME280;61524;50.938;11.396;2023-04-15T03:24:38;98015.44;;;7.87;88.46
73297;BME280;61524;50.938;11.396;2023-04-15T03:27:04;98021.28;;;7.89;88.28
73297;BME280;61524;50.938;11.396;2023-04-15T03:29:32;98022.41;;;7.93;88.28
73297;BME280;61524;50.938;11.396;2023-04-15T03:31:57;98020.50;;;7.88;88.86
73297;BME280;61524;50.938;11.396;2023-04-15T03:34:23;98009.25;;;7.76;88.75
73297;BME280;61524;50.938;11.396;2023-04-15T03:36:48;98008.31;;;7.93;88.61
73297;BME280;61524;50.938;11.396;2023-04-15T03:39:14;98019.22;;;7.96;88.56
73297;BME280;61524;50.938;11.396;2023-04-15T03:41:39;98011.94;;;7.81;89.10
73297;BME280;61524;50.938;11.396;2023-04-15T03:44:05;98016.69;;;7.79;88.94
73297;BME280;61524;50.938;11.396;2023-04-15T03:46:30;98012.13;;;7.75;88.86
73297;BME280;61524;50.938;11.396;2023-04-15T03:48:56;98012.03;;;7.92;89.08
73297;BME280;61524;50.938;11.396;2023-04-15T03:51:21;98009.78;;;7.78;88.59
73297;BME280;61524;50.938;11.396;2023-04-15T03:53:47;97998.38;;;7.83;88.50
73297;BME280;61524;50.938;11.396;2023-04-15T03:56:12;98009.59;;;7.90;88.30
73297;BME280;61524;50.938;11.396;2023-04-15T03:58:37;98004.25;;;7.85;88.47
73297;BME280;61524;50.938;11.396;2023-04-15T04:01:03;98013.00;;;7.80;88.56
73297;BME280;61524;50.938;11.396;2023-04-15T04:03:28;98015.25;;;7.99;87.97
73297;BME280;61524;50.938;11.396;2023-04-15T04:05:54;98007.69;;;7.80;89.29
73297;BME280;61524;50.938;11.396;2023-04-15T04:08:19;97994.50;;;7.63;89.67
73297;BME280;61524;50.938;11.396;2023-04-15T04:10:45;98009.84;;;7.56;89.83
73297;BME280;61524;50.938;11.396;2023-04-15T04:13:11;97994.03;;;7.72;89.50
73297;BME280;61524;50.938;11.396;2023-04-15T04:15:36;97999.72;;;7.80;89.31
73297;BME280;61524;50.938;11.396;2023-04-15T04:18:02;98003.75;;;7.88;88.66
73297;BME280;61524;50.938;11.396;2023-04-15T04:20:27;97998.34;;;7.78;88.92
73297;BME280;61524;50.938;11.396;2023-04-15T04:22:53;98004.50;;;7.83;88.91
73297;BME280;61524;50.938;11.396;2023-04-15T04:25:19;97999.09;;;7.73;88.90
73297;BME280;61524;50.938;11.396;2023-04-15T04:27:44;98004.53;;;7.56;89.59
73297;BME280;61524;50.938;11.396;2023-04-15T04:30:10;98007.16;;;7.51;89.61
73297;BME280;61524;50.938;11.396;2023-04-15T04:32:36;97999.38;;;7.72;89.71
73297;BME280;61524;50.938;11.396;2023-04-15T04:35:03;97993.13;;;7.56;89.73
73297;BME280;61524;50.938;11.396;2023-04-15T04:37:28;98010.78;;;7.40;90.23
73297;BME280;61524;50.938;11.396;2023-04-15T04:39:54;98005.88;;;7.54;89.65
73297;BME280;61524;50.938;11.396;2023-04-15T04:42:20;97999.28;;;7.61;89.92
73297;BME280;61524;50.938;11.396;2023-04-15T04:44:46;97995.56;;;7.35;90.07
73297;BME280;61524;50.938;11.396;2023-04-15T04:47:11;98009.44;;;7.16;91.45
73297;BME280;61524;50.938;11.396;2023-04-15T04:49:38;98011.94;;;7.22;90.87
73297;BME280;61524;50.938;11.396;2023-04-15T04:52:03;98003.81;;;7.34;91.21
73297;BME280;61524;50.938;11.396;2023-04-15T04:54:29;98004.91;;;7.38;90.79
73297;BME280;61524;50.938;11.396;2023-04-15T04:56:55;98005.03;;;7.48;90.27
73297;BME280;61524;50.938;11.396;2023-04-15T04:59:22;98005.16;;;7.36;90.63
73297;BME280;61524;50.938;11.396;2023-04-15T05:01:47;98001.19;;;7.39;90.83
73297;BME280;61524;50.938;11.396;2023-04-15T05:04:13;97999.41;;;7.45;90.18
73297;BME280;61524;50.938;11.396;2023-04-15T05:06:39;97998.28;;;7.41;90.33
73297;BME280;61524;50.938;11.396;2023-04-15T05:09:04;98001.50;;;7.43;90.31
73297;BME280;61524;50.938;11.396;2023-04-15T05:11:30;97998.88;;;7.48;90.63
73297;BME280;61524;50.938;11.396;2023-04-15T05:13:55;97998.59;;;7.44;90.55
73297;BME280;61524;50.938;11.396;2023-04-15T05:16:22;98011.34;;;7.20;91.44
73297;BME280;61524;50.938;11.396;2023-04-15T05:18:47;98014.81;;;7.48;90.40
73297;BME280;61524;50.938;11.396;2023-04-15T05:21:13;98001.78;;;7.46;90.95
73297;BME280;61524;50.938;11.396;2023-04-15T05:23:38;98012.41;;;7.46;90.47
73297;BME280;61524;50.938;11.396;2023-04-15T05:26:04;98017.72;;;7.46;90.32
73297;BME280;61524;50.938;11.396;2023-04-15T05:28:29;98010.78;;;7.40;91.04
73297;BME280;61524;50.938;11.396;2023-04-15T05:30:55;98001.59;;;7.26;91.84
73297;BME280;61524;50.938;11.396;2023-04-15T05:33:21;98006.94;;;7.31;91.29
73297;BME280;61524;50.938;11.396;2023-04-15T05:35:47;97997.44;;;7.35;91.27
73297;BME280;61524;50.938;11.396;2023-04-15T05:38:12;98004.72;;;7.45;91.49
73297;BME280;61524;50.938;11.396;2023-04-15T05:40:38;97987.91;;;7.39;91.90
73297;BME280;61524;50.938;11.396;2023-04-15T05:43:03;97994.72;;;7.30;91.57
73297;BME280;61524;50.938;11.396;2023-04-15T05:45:28;97993.06;;;7.51;91.30
73297;BME280;61524;50.938;11.396;2023-04-15T05:47:54;97990.53;;;7.34;91.75
73297;BME280;61524;50.938;11.396;2023-04-15T05:50:20;97988.50;;;7.46;91.01
73297;BME280;61524;50.938;11.396;2023-04-15T05:52:46;97985.97;;;7.29;92.02
73297;BME280;61524;50.938;11.396;2023-04-15T05:55:11;97984.94;;;7.35;92.01
73297;BME280;61524;50.938;11.396;2023-04-15T05:57:38;97969.72;;;7.26;92.06
73297;BME280;61524;50.938;11.396;2023-04-15T06:00:04;97984.78;;;7.47;91.68
73297;BME280;61524;50.938;11.396;2023-04-15T06:02:30;97993.97;;;7.61;91.04
73297;BME280;61524;50.938;11.396;2023-04-15T06:04:56;97997.72;;;7.66;90.17
73297;BME280;61524;50.938;11.396;2023-04-15T06:07:22;98001.56;;;7.53;90.65
73297;BME280;61524;50.938;11.396;2023-04-15T06:09:48;97998.81;;;7.38;91.19
73297;BME280;61524;50.938;11.396;2023-04-15T06:12:14;98000.44;;;7.17;92.48
73297;BME280;61524;50.938;11.396;2023-04-15T06:14:40;97994.84;;;7.40;92.03
73297;BME280;61524;50.938;11.396;2023-04-15T06:17:05;97999.28;;;7.61;91.98
73297;BME280;61524;50.938;11.396;2023-04-15T06:19:31;98001.94;;;7.61;91.50
73297;BME280;61524;50.938;11.396;2023-04-15T06:21:57;98009.41;;;7.65;91.18
73297;BME280;61524;50.938;11.396;2023-04-15T06:24:23;98001.31;;;7.49;91.53
73297;BME280;61524;50.938;11.396;2023-04-15T06:26:48;98000.81;;;7.57;91.43
73297;BME280;61524;50.938;11.396;2023-04-15T06:29:14;98007.31;;;7.40;91.99
73297;BME280;61524;50.938;11.396;2023-04-15T06:31:39;98008.75;;;7.52;91.94
73297;BME280;61524;50.938;11.396;2023-04-15T06:34:05;98008.56;;;7.59;91.63
73297;BME280;61524;50.938;11.396;2023-04-15T06:36:30;98011.31;;;7.42;91.37
73297;BME280;61524;50.938;11.396;2023-04-15T06:38:56;97997.03;;;7.48;91.64
73297;BME280;61524;50.938;11.396;2023-04-15T06:41:22;98006.09;;;7.52;91.94
73297;BME280;61524;50.938;11.396;2023-04-15T06:43:47;98015.72;;;7.58;91.32
73297;BME280;61524;50.938;11.396;2023-04-15T06:46:13;98009.84;;;7.56;91.35
73297;BME280;61524;50.938;11.396;2023-04-15T06:48:38;98013.38;;;7.62;91.74
73297;BME280;61524;50.938;11.396;2023-04-15T06:51:04;98006.66;;;7.54;91.97
73297;BME280;61524;50.938;11.396;2023-04-15T06:53:29;98015.75;;;7.63;91.79
73297;BME280;61524;50.938;11.396;2023-04-15T06:55:55;98013.06;;;7.58;91.24
73297;BME280;61524;50.938;11.396;2023-04-15T06:58:21;98010.34;;;7.80;90.69
73297;BME280;61524;50.938;11.396;2023-04-15T07:00:46;98027.25;;;7.69;90.87
73297;BME280;61524;50.938;11.396;2023-04-15T07:03:12;98026.06;;;7.87;90.33
73297;BME280;61524;50.938;11.396;2023-04-15T07:05:39;98021.41;;;8.04;90.01
73297;BME280;61524;50.938;11.396;2023-04-15T07:08:05;98007.69;;;7.80;90.45
73297;BME280;61524;50.938;11.396;2023-04-15T07:10:32;98012.88;;;7.65;91.52
73297;BME280;61524;50.938;11.396;2023-04-15T07:12:58;98008.25;;;7.55;91.48
73297;BME280;61524;50.938;11.396;2023-04-15T07:15:23;98009.69;;;7.68;91.08
73297;BME280;61524;50.938;11.396;2023-04-15T07:17:49;98006.28;;;7.73;91.54
73297;BME280;61524;50.938;11.396;2023-04-15T07:20:14;98005.94;;;7.64;91.98
73297;BME280;61524;50.938;11.396;2023-04-15T07:22:40;98006.81;;;7.75;91.74
73297;BME280;61524;50.938;11.396;2023-04-15T07:25:06;98009.16;;;7.66;92.47
73297;BME280;61524;50.938;11.396;2023-04-15T07:27:32;98017.50;;;7.80;91.91
73297;BME280;61524;50.938;11.396;2023-04-15T07:29:57;98011.19;;;7.86;92.00
73297;BME280;61524;50.938;11.396;2023-04-15T07:32:23;98018.72;;;7.99;91.03
73297;BME280;61524;50.938;11.396;2023-04-15T07:34:48;98020.75;;;7.87;91.45
73297;BME280;61524;50.938;11.396;2023-04-15T07:37:14;98029.75;;;7.81;92.02
73297;BME280;61524;50.938;11.396;2023-04-15T07:39:39;98026.41;;;7.96;91.13
73297;BME280;61524;50.938;11.396;2023-04-15T07:42:05;98021.38;;;7.67;91.64
73297;BME280;61524;50.938;11.396;2023-04-15T07:44:30;98038.53;;;7.81;91.64
73297;BME280;61524;50.938;11.396;2023-04-15T07:46:56;98032.91;;;8.10;91.13
73297;BME280;61524;50.938;11.396;2023-04-15T07:49:21;98035.38;;;8.22;90.18
73297;BME280;61524;50.938;11.396;2023-04-15T07:51:48;98028.91;;;8.07;90.42
73297;BME280;61524;50.938;11.396;2023-04-15T07:54:14;98029.84;;;7.96;90.84
73297;BME280;61524;50.938;11.396;2023-04-15T07:56:39;98030.69;;;7.97;90.70
73297;BME280;61524;50.938;11.396;2023-04-15T07:59:05;98038.47;;;8.08;90.82
73297;BME280;61524;50.938;11.396;2023-04-15T08:01:31;98040.53;;;8.01;90.75
73297;BME280;61524;50.938;11.396;2023-04-15T08:04:00;98036.19;;;8.27;89.81
73297;BME280;61524;50.938;11.396;2023-04-15T08:06:25;98046.06;;;7.95;90.73
73297;BME280;61524;50.938;11.396;2023-04-15T08:08:51;98051.50;;;8.10;91.29
73297;BME280;61524;50.938;11.396;2023-04-15T08:11:18;98044.72;;;8.24;90.20
73297;BME280;61524;50.938;11.396;2023-04-15T08:13:44;98041.22;;;8.19;90.24
73297;BME280;61524;50.938;11.396;2023-04-15T08:16:22;98041.56;;;7.95;91.23
73297;BME280;61524;50.938;11.396;2023-04-15T08:18:49;98043.94;;;8.29;91.36
73297;BME280;61524;50.938;11.396;2023-04-15T08:21:16;98054.03;;;8.27;89.85
73297;BME280;61524;50.938;11.396;2023-04-15T08:23:42;98054.19;;;8.47;88.98
73297;BME280;61524;50.938;11.396;2023-04-15T08:26:08;98062.34;;;8.35;89.06
73297;BME280;61524;50.938;11.396;2023-04-15T08:28:34;98055.72;;;8.38;89.82
73297;BME280;61524;50.938;11.396;2023-04-15T08:31:00;98050.78;;;8.20;90.25
73297;BME280;61524;50.938;11.396;2023-04-15T08:33:25;98051.41;;;8.32;90.75
73297;BME280;61524;50.938;11.396;2023-04-15T08:35:51;98058.16;;;8.45;89.58
73297;BME280;61524;50.938;11.396;2023-04-15T08:38:16;98073.25;;;8.76;89.39
73297;BME280;61524;50.938;11.396;2023-04-15T08:40:43;98069.56;;;8.87;87.31
73297;BME280;61524;50.938;11.396;2023-04-15T08:43:32;98073.47;;;8.64;89.01
73297;BME280;61524;50.938;11.396;2023-04-15T08:45:59;98065.88;;;8.41;90.35
73297;BME280;61524;50.938;11.396;2023-04-15T08:48:28;98074.53;;;8.63;90.72
73297;BME280;61524;50.938;11.396;2023-04-15T08:50:54;98068.59;;;8.51;89.81
73297;BME280;61524;50.938;11.396;2023-04-15T08:53:20;98076.66;;;8.61;89.58
73297;BME280;61524;50.938;11.396;2023-04-15T08:55:49;98080.81;;;8.94;89.26
73297;BME280;61524;50.938;11.396;2023-04-15T08:58:15;98094.44;;;9.03;88.22
73297;BME280;61524;50.938;11.396;2023-04-15T09:00:42;98092.31;;;9.05;88.15
73297;BME280;61524;50.938;11.396;2023-04-15T09:03:08;98101.50;;;8.77;88.87
73297;BME280;61524;50.938;11.396;2023-04-15T09:05:34;98099.09;;;8.76;88.92
73297;BME280;61524;50.938;11.396;2023-04-15T09:08:00;98102.81;;;8.75;89.34
73297;BME280;61524;50.938;11.396;2023-04-15T09:10:27;98107.88;;;8.76;89.18
73297;BME280;61524;50.938;11.396;2023-04-15T09:12:53;98101.31;;;8.94;88.61
73297;BME280;61524;50.938;11.396;2023-04-15T09:15:19;98080.06;;;8.52;89.57
73297;BME280;61524;50.938;11.396;2023-04-15T09:17:45;98090.34;;;8.43;91.12
73297;BME280;61524;50.938;11.396;2023-04-15T09:20:12;98096.94;;;8.73;89.20
73297;BME280;61524;50.938;11.396;2023-04-15T09:22:39;98096.81;;;8.94;88.77
73297;BME280;61524;50.938;11.396;2023-04-15T09:25:26;98097.22;;;8.76;89.51
73297;BME280;61524;50.938;11.396;2023-04-15T09:27:56;98101.72;;;8.71;90.36
73297;BME280;61524;50.938;11.396;2023-04-15T09:30:22;98103.91;;;8.79;89.95
73297;BME280;61524;50.938;11.396;2023-04-15T09:32:52;98092.81;;;9.02;89.90
73297;BME280;61524;50.938;11.396;2023-04-15T09:35:18;98096.91;;;8.67;90.26
73297;BME280;61524;50.938;11.396;2023-04-15T09:37:46;98116.72;;;8.87;90.09
73297;BME280;61524;50.938;11.396;2023-04-15T09:40:12;98115.44;;;8.94;88.83
73297;BME280;61524;50.938;11.396;2023-04-15T09:42:56;98123.97;;;8.97;88.83
73297;BME280;61524;50.938;11.396;2023-04-15T09:45:22;98126.53;;;9.34;88.00
73297;BME280;61524;50.938;11.396;2023-04-15T09:47:48;98123.09;;;9.38;87.92
73297;BME280;61524;50.938;11.396;2023-04-15T09:50:16;98129.84;;;8.99;88.28
73297;BME280;61524;50.938;11.396;2023-04-15T09:52:42;98122.09;;;8.97;89.10
73297;BME280;61524;50.938;11.396;2023-04-15T09:55:09;98123.50;;;9.05;88.57
73297;BME280;61524;50.938;11.396;2023-04-15T09:57:36;98124.88;;;9.17;89.06
73297;BME280;61524;50.938;11.396;2023-04-15T10:00:35;98123.56;;;9.25;88.79
73297;BME280;61524;50.938;11.396;2023-04-15T10:03:04;98120.06;;;9.19;89.02
73297;BME280;61524;50.938;11.396;2023-04-15T10:05:29;98130.28;;;9.33;88.75
73297;BME280;61524;50.938;11.396;2023-04-15T10:07:56;98134.56;;;9.44;89.79
73297;BME280;61524;50.938;11.396;2023-04-15T10:10:22;98132.41;;;9.36;89.30
73297;BME280;61524;50.938;11.396;2023-04-15T10:12:48;98132.44;;;9.46;89.26
73297;BME280;61524;50.938;11.396;2023-04-15T10:15:15;98132.94;;;9.33;88.45
73297;BME280;61524;50.938;11.396;2023-04-15T10:17:43;98131.28;;;9.16;89.42
73297;BME280;61524;50.938;11.396;2023-04-15T10:20:09;98126.41;;;9.08;89.49
73297;BME280;61524;50.938;11.396;2023-04-15T10:22:36;98127.28;;;9.24;89.86
73297;BME280;61524;50.938;11.396;2023-04-15T10:25:02;98132.94;;;9.33;90.20
73297;BME280;61524;50.938;11.396;2023-04-15T10:27:28;98137.88;;;9.77;88.61
73297;BME280;61524;50.938;11.396;2023-04-15T10:29:55;98132.44;;;9.46;88.82
73297;BME280;61524;50.938;11.396;2023-04-15T10:32:23;98137.22;;;9.39;89.10
73297;BME280;61524;50.938;11.396;2023-04-15T10:34:50;98138.06;;;9.50;89.80
73297;BME280;61524;50.938;11.396;2023-04-15T10:37:20;98143.97;;;9.62;89.42
73297;BME280;61524;50.938;11.396;2023-04-15T10:39:46;98142.72;;;9.17;90.20
73297;BME280;61524;50.938;11.396;2023-04-15T10:42:16;98139.34;;;9.32;89.89
73297;BME280;61524;50.938;11.396;2023-04-15T10:44:50;98139.38;;;9.42;90.60
73297;BME280;61524;50.938;11.396;2023-04-15T10:47:18;98137.78;;;9.51;89.42
73297;BME280;61524;50.938;11.396;2023-04-15T10:49:55;98141.03;;;9.58;89.90
73297;BME280;61524;50.938;11.396;2023-04-15T10:52:23;98143.19;;;9.66;88.35
73297;BME280;61524;50.938;11.396;2023-04-15T10:55:11;98149.31;;;9.72;87.08
73297;BME280;61524;50.938;11.396;2023-04-15T10:57:38;98141.59;;;9.65;87.65
73297;BME280;61524;50.938;11.396;2023-04-15T11:02:53;98149.88;;;9.79;88.80
73297;BME280;61524;50.938;11.396;2023-04-15T11:05:20;98146.38;;;9.63;89.23
73297;BME280;61524;50.938;11.396;2023-04-15T11:07:55;98145.31;;;9.64;89.13
73297;BME280;61524;50.938;11.396;2023-04-15T11:12:59;98157.50;;;9.45;90.34
73297;BME280;61524;50.938;11.396;2023-04-15T11:15:44;98147.97;;;9.59;90.19
73297;BME280;61524;50.938;11.396;2023-04-15T11:18:14;98155.47;;;9.72;88.72
73297;BME280;61524;50.938;11.396;2023-04-15T11:20:42;98157.38;;;9.92;89.02
73297;BME280;61524;50.938;11.396;2023-04-15T11:23:13;98165.94;;;10.10;87.95
73297;BME280;61524;50.938;11.396;2023-04-15T11:25:39;98156.06;;;10.00;88.36
73297;BME280;61524;50.938;11.396;2023-04-15T11:28:05;98159.78;;;9.99;88.89
73297;BME280;61524;50.938;11.396;2023-04-15T11:30:33;98163.00;;;9.91;88.68
73297;BME280;61524;50.938;11.396;2023-04-15T11:33:04;98161.38;;;9.80;89.94
73297;BME280;61524;50.938;11.396;2023-04-15T11:35:30;98175.75;;;9.79;89.01
73297;BME280;61524;50.938;11.396;2023-04-15T11:37:56;98178.41;;;9.79;89.26
73297;BME280;61524;50.938;11.396;2023-04-15T11:40:28;98169.66;;;9.98;88.35
73297;BME280;61524;50.938;11.396;2023-04-15T11:45:32;98185.09;;;9.81;89.74
73297;BME280;61524;50.938;11.396;2023-04-15T11:50:32;98185.66;;;9.88;89.89
73297;BME280;61524;50.938;11.396;2023-04-15T11:53:00;98181.69;;;10.16;88.06
73297;BME280;61524;50.938;11.396;2023-04-15T11:55:26;98193.72;;;10.09;88.50
73297;BME280;61524;50.938;11.396;2023-04-15T11:58:18;98186.50;;;10.09;88.87
73297;BME280;61524;50.938;11.396;2023-04-15T12:01:06;98206.41;;;9.71;90.17
73297;BME280;61524;50.938;11.396;2023-04-15T12:03:39;98203.03;;;10.06;88.62
73297;BME280;61524;50.938;11.396;2023-04-15T12:08:58;98212.94;;;10.21;88.18
73297;BME280;61524;50.938;11.396;2023-04-15T12:11:44;98211.84;;;10.02;88.71
73297;BME280;61524;50.938;11.396;2023-04-15T12:14:29;98213.88;;;9.79;90.38
73297;BME280;61524;50.938;11.396;2023-04-15T12:17:03;98209.69;;;9.98;89.19
73297;BME280;61524;50.938;11.396;2023-04-15T12:19:34;98221.72;;;10.11;88.11
73297;BME280;61524;50.938;11.396;2023-04-15T12:22:01;98226.63;;;10.35;87.29
73297;BME280;61524;50.938;11.396;2023-04-15T12:24:30;98221.22;;;10.19;88.29
73297;BME280;61524;50.938;11.396;2023-04-15T12:26:58;98220.41;;;10.14;88.83
73297;BME280;61524;50.938;11.396;2023-04-15T12:29:28;98233.81;;;10.24;88.48
73297;BME280;61524;50.938;11.396;2023-04-15T12:31:55;98231.69;;;10.41;88.51
73297;BME280;61524;50.938;11.396;2023-04-15T12:36:52;98234.28;;;10.11;89.74
73297;BME280;61524;50.938;11.396;2023-04-15T12:39:21;98250.03;;;10.12;89.31
73297;BME280;61524;50.938;11.396;2023-04-15T12:41:46;98236.22;;;10.31;89.04
73297;BME280;61524;50.938;11.396;2023-04-15T12:44:12;98247.72;;;10.36;89.54
73297;BME280;61524;50.938;11.396;2023-04-15T12:46:37;98255.47;;;10.53;87.67
73297;BME280;61524;50.938;11.396;2023-04-15T12:49:03;98253.25;;;10.19;88.73
73297;BME280;61524;50.938;11.396;2023-04-15T12:51:28;98257.56;;;10.31;88.73
73297;BME280;61524;50.938;11.396;2023-04-15T12:53:56;98260.78;;;10.33;87.86
73297;BME280;61524;50.938;11.396;2023-04-15T12:56:21;98274.13;;;10.28;88.51
73297;BME280;61524;50.938;11.396;2023-04-15T12:58:53;98271.22;;;10.55;87.74
73297;BME280;61524;50.938;11.396;2023-04-15T13:01:18;98265.38;;;10.63;86.64
73297;BME280;61524;50.938;11.396;2023-04-15T13:03:44;98265.31;;;10.37;88.45
73297;BME280;61524;50.938;11.396;2023-04-15T13:06:09;98274.44;;;10.46;88.98
73297;BME280;61524;50.938;11.396;2023-04-15T13:08:35;98269.88;;;10.42;88.10
73297;BME280;61524;50.938;11.396;2023-04-15T13:11:01;98279.22;;;10.34;88.68
73297;BME280;61524;50.938;11.396;2023-04-15T13:13:27;98288.03;;;10.40;88.29
73297;BME280;61524;50.938;11.396;2023-04-15T13:15:53;98291.53;;;10.45;87.91